createdAt,value
2023-12-07T00:01:00.488Z,3.75
2023-12-07T00:04:02.566Z,4.43
2023-12-07T00:07:05.946Z,3.42
2023-12-07T00:10:08.821Z,3.13
2023-12-07T00:13:10.719Z,3.85
2023-12-07T00:16:13.266Z,3.63
2023-12-07T00:19:15.141Z,2.97
2023-12-07T00:22:18.612Z,2.72
2023-12-07T00:25:20.670Z,3.63
2023-12-07T00:28:23.214Z,3.13
2023-12-07T00:31:25.131Z,2.95
2023-12-07T00:34:27.405Z,3.28
2023-12-07T00:37:30.717Z,2.33
2023-12-07T00:40:37.104Z,2.22
2023-12-07T00:43:39.112Z,2.20
2023-12-07T00:46:41.084Z,1.55
2023-12-07T00:49:44.345Z,1.70
2023-12-07T00:52:47.630Z,0.82
2023-12-07T00:55:49.643Z,1.20
2023-12-07T00:58:52.175Z,1.40
2023-12-07T01:01:54.151Z,1.10
2023-12-07T01:04:56.316Z,1.33
2023-12-07T01:07:59.626Z,1.08
2023-12-07T01:11:02.073Z,1.27
2023-12-07T01:14:03.953Z,1.33
2023-12-07T01:17:06.085Z,1.35
2023-12-07T01:20:13.719Z,1.58
2023-12-07T01:23:17.469Z,1.77
2023-12-07T01:26:19.426Z,1.30
2023-12-07T01:29:22.152Z,1.65
2023-12-07T01:32:25.478Z,1.90
2023-12-07T01:35:27.631Z,1.80
2023-12-07T01:38:30.991Z,1.33
2023-12-07T01:41:33.124Z,2.22
2023-12-07T01:44:35.227Z,2.15
2023-12-07T01:47:38.275Z,1.80
2023-12-07T01:50:41.071Z,1.95
2023-12-07T01:53:44.526Z,2.00
2023-12-07T01:56:47.238Z,2.13
2023-12-07T01:59:50.158Z,2.03
2023-12-07T02:02:53.132Z,2.33
2023-12-07T02:05:56.147Z,2.10
2023-12-07T02:08:59.483Z,1.85
2023-12-07T02:12:01.922Z,2.00
2023-12-07T02:15:04.595Z,1.92
2023-12-07T02:18:15.323Z,1.60
2023-12-07T02:21:23.022Z,1.90
2023-12-07T02:24:30.001Z,1.83
2023-12-07T02:27:38.478Z,2.00
2023-12-07T02:30:40.967Z,1.73
2023-12-07T02:33:43.062Z,2.05
2023-12-07T02:36:49.536Z,1.92
2023-12-07T02:39:52.668Z,2.10
2023-12-07T02:42:57.342Z,1.60
2023-12-07T02:45:59.666Z,1.67
2023-12-07T02:49:02.128Z,1.80
2023-12-07T02:52:04.689Z,1.90
2023-12-07T02:55:07.578Z,1.70
2023-12-07T02:58:11.206Z,1.90
2023-12-07T03:01:13.145Z,1.85
2023-12-07T03:04:15.295Z,1.33
2023-12-07T03:07:18.079Z,1.70
2023-12-07T03:10:20.121Z,1.67
2023-12-07T03:13:24.263Z,1.67
2023-12-07T03:16:26.236Z,2.35
2023-12-07T03:19:28.205Z,1.92
2023-12-07T03:22:30.708Z,2.00
2023-12-07T03:25:32.886Z,2.35
2023-12-07T03:28:37.125Z,2.05
2023-12-07T03:31:39.113Z,2.25
2023-12-07T03:34:41.094Z,2.08
2023-12-07T03:37:43.046Z,2.20
2023-12-07T03:40:49.143Z,2.20
2023-12-07T03:43:53.175Z,1.90
2023-12-07T03:46:56.419Z,2.60
2023-12-07T03:49:58.352Z,1.65
2023-12-07T03:53:00.304Z,2.15
2023-12-07T03:56:02.711Z,1.95
2023-12-07T03:59:05.934Z,2.63
2023-12-07T04:02:08.699Z,2.10
2023-12-07T04:05:10.719Z,2.80
2023-12-07T04:08:13.713Z,2.67
2023-12-07T04:11:16.251Z,2.35
2023-12-07T04:14:19.590Z,1.90
2023-12-07T04:17:22.558Z,2.58
2023-12-07T04:20:24.611Z,2.53
2023-12-07T04:23:26.815Z,2.08
2023-12-07T04:26:28.807Z,2.22
2023-12-07T04:29:32.119Z,2.58
2023-12-07T04:32:34.673Z,2.17
2023-12-07T04:35:36.777Z,2.65
2023-12-07T04:38:39.614Z,2.20
2023-12-07T04:41:41.455Z,2.55
2023-12-07T04:44:44.763Z,2.25
2023-12-07T04:47:47.720Z,2.20
2023-12-07T04:50:49.648Z,3.15
2023-12-07T04:53:54.729Z,2.33
2023-12-07T04:56:58.136Z,2.55
2023-12-07T05:00:01.706Z,2.40
2023-12-07T05:03:04.014Z,2.80
2023-12-07T05:06:06.671Z,2.15
2023-12-07T05:09:10.657Z,2.78
2023-12-07T05:12:13.521Z,2.60
2023-12-07T05:15:16.955Z,3.30
2023-12-07T05:18:19.502Z,2.83
2023-12-07T05:21:21.569Z,2.80
2023-12-07T05:24:23.461Z,2.85
2023-12-07T05:27:25.517Z,2.90
2023-12-07T05:30:29.266Z,3.50
2023-12-07T05:33:31.566Z,2.90
2023-12-07T05:36:33.600Z,3.22
2023-12-07T05:39:35.402Z,3.22
2023-12-07T05:42:37.293Z,2.72
2023-12-07T05:45:40.528Z,3.20
2023-12-07T05:48:43.529Z,2.95
2023-12-07T05:51:45.554Z,2.75
2023-12-07T05:54:49.215Z,2.67
2023-12-07T05:57:51.324Z,3.20
2023-12-07T06:00:54.680Z,2.88
2023-12-07T06:03:56.700Z,2.75
2023-12-07T06:06:58.691Z,3.58
2023-12-07T06:10:00.773Z,2.95
2023-12-07T06:13:04.801Z,2.75
2023-12-07T06:16:08.265Z,3.40
2023-12-07T06:19:10.489Z,3.03
2023-12-07T06:22:12.519Z,3.40
2023-12-07T06:25:15.014Z,3.00
2023-12-07T06:28:17.030Z,3.72
2023-12-07T06:31:23.985Z,3.13
2023-12-07T06:34:26.189Z,3.80
2023-12-07T06:37:28.338Z,3.90
2023-12-07T06:40:30.253Z,3.30
2023-12-07T06:43:32.586Z,4.30
2023-12-07T06:46:35.970Z,3.88
2023-12-07T06:49:47.207Z,4.47
2023-12-07T06:52:54.276Z,4.60
2023-12-07T06:55:56.273Z,3.72
2023-12-07T06:58:59.216Z,4.00
2023-12-07T07:02:03.192Z,6.32
2023-12-07T07:05:07.236Z,8.38
2023-12-07T07:08:09.804Z,10.02
2023-12-07T07:11:15.391Z,12.60
2023-12-07T07:14:17.407Z,11.82
2023-12-07T07:17:20.788Z,13.35
2023-12-07T07:20:23.416Z,12.20
2023-12-07T07:23:25.431Z,14.10
2023-12-07T07:26:27.423Z,13.05
2023-12-07T07:29:30.408Z,14.07
2023-12-07T07:32:33.760Z,6.45
2023-12-07T07:35:36.130Z,6.20
2023-12-07T07:38:38.054Z,5.85
2023-12-07T07:41:40.120Z,7.15
2023-12-07T07:44:42.468Z,7.00
2023-12-07T07:47:46.268Z,6.93
2023-12-07T07:50:49.962Z,6.00
2023-12-07T07:53:57.067Z,6.50
2023-12-07T07:57:09.804Z,5.82
2023-12-07T08:00:20.502Z,5.25
2023-12-07T08:03:25.208Z,7.68
2023-12-07T08:06:27.164Z,9.32
2023-12-07T08:09:29.606Z,9.77
2023-12-07T08:12:38.024Z,10.70
2023-12-07T08:15:41.925Z,10.75
2023-12-07T08:18:45.492Z,10.73
2023-12-07T08:21:48.070Z,10.30
2023-12-07T08:25:01.329Z,10.00
2023-12-07T08:28:11.134Z,9.88
2023-12-07T08:31:13.185Z,9.18
2023-12-07T08:34:18.743Z,9.82
2023-12-07T08:40:23.830Z,10.32
2023-12-07T08:43:26.259Z,10.15
2023-12-07T08:46:28.199Z,9.30
2023-12-07T08:49:31.929Z,9.77
2023-12-07T08:52:42.189Z,9.73
2023-12-07T08:55:49.828Z,8.60
2023-12-07T08:58:52.521Z,9.30
2023-12-07T09:01:54.654Z,9.40
2023-12-07T09:04:58.094Z,8.95
2023-12-07T09:08:01.017Z,12.50
2023-12-07T09:11:03.059Z,9.52
2023-12-07T09:14:05.897Z,12.65
2023-12-07T09:17:07.831Z,27.90
2023-12-07T09:20:15.759Z,17.23
2023-12-07T09:23:18.127Z,13.40
2023-12-07T09:26:20.128Z,9.98
2023-12-07T09:29:22.844Z,8.93
2023-12-07T09:32:29.942Z,10.65
2023-12-07T09:35:36.819Z,10.60
2023-12-07T09:38:38.828Z,11.15
2023-12-07T09:41:42.870Z,10.77
2023-12-07T09:44:44.928Z,10.95
2023-12-07T09:47:49.225Z,12.75
2023-12-07T09:50:53.903Z,10.48
2023-12-07T09:53:56.170Z,10.10
2023-12-07T09:56:58.642Z,10.68
2023-12-07T10:00:00.623Z,8.82
2023-12-07T10:03:02.965Z,9.10
2023-12-07T10:06:06.728Z,9.45
2023-12-07T10:09:14.864Z,8.18
2023-12-07T10:12:19.797Z,8.00
2023-12-07T10:15:23.816Z,8.73
2023-12-07T10:18:26.699Z,8.18
2023-12-07T10:21:34.537Z,10.65
2023-12-07T10:24:36.816Z,11.75
2023-12-07T10:27:40.226Z,9.30
2023-12-07T10:30:44.311Z,11.43
2023-12-07T10:33:49.144Z,9.77
2023-12-07T10:36:54.337Z,9.68
2023-12-07T10:39:56.829Z,9.27
2023-12-07T10:42:59.769Z,10.10
2023-12-07T10:46:03.680Z,9.23
2023-12-07T10:49:15.683Z,9.75
2023-12-07T10:52:26.762Z,9.25
2023-12-07T10:55:32.226Z,8.63
2023-12-07T10:58:37.400Z,10.40
2023-12-07T11:01:41.228Z,9.88
2023-12-07T11:04:45.011Z,10.32
2023-12-07T11:07:56.523Z,10.93
2023-12-07T11:11:06.907Z,8.93
2023-12-07T11:14:13.994Z,9.13
2023-12-07T11:17:17.656Z,11.10
2023-12-07T11:20:32.731Z,10.35
2023-12-07T11:23:37.908Z,14.65
2023-12-07T11:26:42.559Z,11.93
2023-12-07T11:29:47.767Z,11.00
2023-12-07T11:32:49.928Z,13.45
2023-12-07T11:36:05.682Z,12.10
2023-12-07T11:39:26.488Z,13.15
2023-12-07T11:42:31.359Z,11.93
2023-12-07T11:45:47.649Z,12.10
2023-12-07T11:48:51.087Z,11.27
2023-12-07T11:51:53.375Z,10.75
2023-12-07T11:54:56.690Z,10.90
2023-12-07T11:58:07.488Z,12.20
2023-12-07T12:01:10.896Z,12.18
2023-12-07T12:04:13.353Z,12.43
2023-12-07T12:07:15.282Z,13.43
2023-12-07T12:10:20.705Z,13.05
2023-12-07T12:13:28.629Z,14.85
2023-12-07T12:16:30.712Z,14.88
2023-12-07T12:19:36.893Z,14.95
2023-12-07T12:25:42.474Z,14.07
2023-12-07T12:28:45.654Z,13.60
2023-12-07T12:31:48.205Z,15.38
2023-12-07T12:34:52.648Z,14.43
2023-12-07T12:37:56.552Z,15.13
2023-12-07T12:41:00.096Z,15.68
2023-12-07T12:44:02.621Z,15.20
2023-12-07T12:47:06.465Z,15.45
2023-12-07T12:50:10.780Z,14.50
2023-12-07T12:53:14.445Z,14.40
2023-12-07T12:56:17.979Z,14.48
2023-12-07T12:59:21.655Z,13.50
2023-12-07T13:02:23.811Z,16.42
2023-12-07T13:05:26.514Z,13.13
2023-12-07T13:08:28.586Z,13.05
2023-12-07T13:11:32.006Z,13.20
2023-12-07T13:14:39.465Z,14.35
2023-12-07T13:17:42.128Z,14.75
2023-12-07T13:20:49.958Z,12.48
2023-12-07T13:24:01.568Z,14.15
2023-12-07T13:27:06.905Z,14.82
2023-12-07T13:30:10.462Z,13.82
2023-12-07T13:33:21.719Z,15.85
2023-12-07T13:36:30.561Z,14.50
2023-12-07T13:39:33.253Z,14.73
2023-12-07T13:42:37.167Z,16.05
2023-12-07T13:45:39.296Z,14.25
2023-12-07T13:48:41.248Z,15.32
2023-12-07T13:51:43.616Z,15.40
2023-12-07T13:54:53.307Z,16.25
2023-12-07T13:57:58.718Z,17.27
2023-12-07T14:01:02.514Z,16.38
2023-12-07T14:04:04.558Z,16.48
2023-12-07T14:07:11.471Z,16.15
2023-12-07T14:10:14.364Z,17.35
2023-12-07T14:13:19.326Z,17.10
2023-12-07T14:16:31.499Z,16.13
2023-12-07T14:19:44.739Z,17.17
2023-12-07T14:22:47.483Z,17.45
2023-12-07T14:25:49.908Z,16.95
2023-12-07T14:28:53.430Z,16.30
2023-12-07T14:31:55.654Z,17.50
2023-12-07T14:34:57.745Z,16.15
2023-12-07T14:38:00.074Z,16.35
2023-12-07T14:41:01.931Z,17.08
2023-12-07T14:44:06.109Z,15.50
2023-12-07T14:47:08.508Z,15.63
2023-12-07T14:50:10.678Z,16.35
2023-12-07T14:53:13.117Z,16.17
2023-12-07T14:56:15.231Z,17.63
2023-12-07T14:59:21.132Z,17.15
2023-12-07T15:02:23.382Z,17.33
2023-12-07T15:05:25.529Z,38.60
2023-12-07T15:08:27.423Z,27.33
2023-12-07T15:11:29.953Z,33.47
2023-12-07T15:14:37.809Z,27.75
2023-12-07T15:17:42.715Z,24.27
2023-12-07T15:20:45.076Z,24.70
2023-12-07T15:23:47.266Z,27.15
2023-12-07T15:26:49.527Z,26.55
2023-12-07T15:29:52.982Z,27.55
2023-12-07T15:32:55.001Z,28.08
2023-12-07T15:35:58.125Z,27.45
2023-12-07T15:39:00.412Z,29.58
2023-12-07T15:42:03.419Z,28.98
2023-12-07T15:45:09.153Z,28.80
2023-12-07T15:48:11.305Z,27.67
2023-12-07T15:51:13.332Z,28.95
2023-12-07T15:54:26.721Z,27.02
2023-12-07T15:57:36.199Z,28.67
2023-12-07T16:00:40.201Z,29.25
2023-12-07T16:03:42.114Z,28.25
2023-12-07T16:06:44.614Z,27.23
2023-12-07T16:09:46.540Z,29.42
2023-12-07T16:12:48.557Z,27.75
2023-12-07T16:15:52.086Z,29.35
2023-12-07T16:18:54.018Z,28.95
2023-12-07T16:21:57.100Z,28.35
2023-12-07T16:25:06.175Z,26.20
2023-12-07T16:28:14.516Z,29.23
2023-12-07T16:31:24.189Z,29.27
2023-12-07T16:34:31.258Z,31.02
2023-12-07T16:37:39.576Z,27.35
2023-12-07T16:40:46.989Z,32.42
2023-12-07T16:43:54.963Z,34.50
2023-12-07T16:47:05.140Z,33.75
2023-12-07T16:50:16.077Z,35.33
2023-12-07T16:53:23.305Z,31.10
2023-12-07T16:56:25.277Z,31.45
2023-12-07T16:59:28.226Z,35.03
2023-12-07T17:02:32.275Z,33.05
2023-12-07T17:05:34.299Z,35.38
2023-12-07T17:08:37.307Z,33.38
2023-12-07T17:11:39.268Z,33.88
2023-12-07T17:14:41.345Z,32.05
2023-12-07T17:17:45.087Z,33.35
2023-12-07T17:20:47.120Z,35.17
2023-12-07T17:23:49.142Z,46.95
2023-12-07T17:26:54.824Z,65.05
2023-12-07T17:29:56.936Z,64.32
2023-12-07T17:33:00.594Z,52.10
2023-12-07T17:36:02.670Z,57.85
2023-12-07T17:39:04.664Z,71.22
2023-12-07T17:42:06.735Z,70.40
2023-12-07T17:45:10.493Z,63.50
2023-12-07T17:48:13.944Z,62.72
2023-12-07T17:51:15.936Z,60.00
2023-12-07T17:54:19.597Z,52.58
2023-12-07T17:57:21.716Z,40.95
2023-12-07T18:00:23.612Z,41.95
2023-12-07T18:03:27.924Z,38.13
2023-12-07T18:06:29.893Z,36.08
2023-12-07T18:09:32.519Z,38.03
2023-12-07T18:12:34.377Z,37.20
2023-12-07T18:15:36.591Z,37.67
2023-12-07T18:18:40.034Z,37.15
2023-12-07T18:21:42.117Z,36.10
2023-12-07T18:24:44.640Z,36.35
2023-12-07T18:27:48.370Z,37.53
2023-12-07T18:30:50.562Z,38.70
2023-12-07T18:33:54.098Z,37.55
2023-12-07T18:36:56.106Z,38.78
2023-12-07T18:39:59.498Z,38.42
2023-12-07T18:43:02.648Z,38.92
2023-12-07T18:46:07.156Z,39.15
2023-12-07T18:49:10.559Z,35.97
2023-12-07T18:52:13.474Z,37.15
2023-12-07T18:55:15.430Z,37.67
2023-12-07T18:58:17.518Z,38.60
2023-12-07T19:01:19.785Z,36.78
2023-12-07T19:04:23.221Z,37.42
2023-12-07T19:07:25.511Z,36.95
2023-12-07T19:10:29.371Z,39.45
2023-12-07T19:13:31.311Z,41.50
2023-12-07T19:16:33.397Z,41.63
2023-12-07T19:19:36.843Z,43.35
2023-12-07T19:22:38.780Z,42.00
2023-12-07T19:25:40.685Z,42.90
2023-12-07T19:28:42.777Z,40.33
2023-12-07T19:31:45.743Z,44.83
2023-12-07T19:34:49.950Z,43.88
2023-12-07T19:37:51.991Z,43.38
2023-12-07T19:40:54.324Z,42.17
2023-12-07T19:43:56.273Z,42.38
2023-12-07T19:46:58.364Z,40.40
2023-12-07T19:50:01.836Z,44.85
2023-12-07T19:53:04.374Z,42.85
2023-12-07T19:56:09.219Z,45.95
2023-12-07T19:59:11.300Z,42.63
2023-12-07T20:02:13.557Z,45.30
2023-12-07T20:05:17.105Z,47.00
2023-12-07T20:08:19.361Z,46.95
2023-12-07T20:11:21.873Z,48.10
2023-12-07T20:14:24.365Z,41.83
2023-12-07T20:17:27.225Z,43.40
2023-12-07T20:20:31.361Z,40.42
2023-12-07T20:23:33.264Z,40.38
2023-12-07T20:26:35.373Z,39.92
2023-12-07T20:29:38.322Z,43.33
2023-12-07T20:32:40.476Z,42.53
2023-12-07T20:35:45.731Z,42.05
2023-12-07T20:38:47.755Z,43.75
2023-12-07T20:41:49.904Z,44.58
2023-12-07T20:44:52.470Z,43.67
2023-12-07T20:47:54.498Z,48.33
2023-12-07T20:50:59.117Z,49.38
2023-12-07T20:54:01.152Z,38.25
2023-12-07T20:57:04.496Z,35.95
2023-12-07T21:00:08.268Z,32.13
2023-12-07T21:03:10.323Z,15.82
2023-12-07T21:06:25.864Z,11.73
2023-12-07T21:09:29.163Z,12.95
2023-12-07T21:12:31.016Z,12.98
2023-12-07T21:15:35.229Z,11.98
2023-12-07T21:18:37.275Z,12.52
2023-12-07T21:21:41.697Z,13.93
2023-12-07T21:24:43.594Z,13.02
2023-12-07T21:27:45.438Z,12.60
2023-12-07T21:30:48.061Z,11.52
2023-12-07T21:33:56.537Z,11.23
2023-12-07T21:37:00.504Z,15.50
2023-12-07T21:40:02.442Z,15.32
2023-12-07T21:43:04.377Z,16.73
2023-12-07T21:46:06.472Z,13.50
2023-12-07T21:49:08.497Z,15.50
2023-12-07T21:52:12.625Z,14.93
2023-12-07T21:55:14.715Z,16.60
2023-12-07T21:58:17.452Z,12.07
2023-12-07T22:01:19.948Z,13.18
2023-12-07T22:04:21.867Z,13.77
2023-12-07T22:07:25.644Z,14.68
2023-12-07T22:10:29.803Z,14.10
2023-12-07T22:13:32.168Z,16.27
2023-12-07T22:16:34.849Z,13.43
2023-12-07T22:19:36.835Z,17.45
2023-12-07T22:22:41.869Z,13.60
2023-12-07T22:25:43.778Z,15.05
2023-12-07T22:28:45.674Z,16.38
2023-12-07T22:31:47.903Z,16.70
2023-12-07T22:34:50.116Z,14.85
2023-12-07T22:37:54.084Z,17.38
2023-12-07T22:40:56.828Z,15.50
2023-12-07T22:43:58.731Z,16.17
2023-12-07T22:47:01.929Z,16.27
2023-12-07T22:50:04.928Z,14.25
2023-12-07T22:53:08.166Z,16.40
2023-12-07T22:56:11.077Z,11.57
2023-12-07T22:59:12.957Z,14.85
2023-12-07T23:02:18.072Z,12.32
2023-12-07T23:05:20.045Z,14.45
2023-12-07T23:08:24.027Z,16.17
2023-12-07T23:11:25.982Z,13.20
2023-12-07T23:14:27.920Z,14.95
2023-12-07T23:17:29.907Z,12.50
2023-12-07T23:20:32.864Z,12.38
2023-12-07T23:23:36.272Z,13.95
2023-12-07T23:26:38.684Z,13.27
2023-12-07T23:29:46.633Z,12.43
2023-12-07T23:32:54.815Z,15.82
2023-12-07T23:35:57.947Z,12.15
2023-12-07T23:39:01.293Z,11.75
2023-12-07T23:42:03.343Z,12.10
2023-12-07T23:45:06.703Z,11.82
2023-12-07T23:48:09.910Z,14.63
2023-12-07T23:51:11.915Z,12.48
2023-12-07T23:54:15.418Z,12.55
2023-12-07T23:57:17.620Z,12.10
